sensor_id;sensor_type;location;lat;lon;timestamp;pressure;altitude;pressure_sealevel;temperature;humidity
50384;BME280;36301;48.310;12.786;2023-10-19T00:00:53;94862.56;;;7.04;100.00
50384;BME280;36301;48.310;12.786;2023-10-19T00:03:23;94867.50;;;7.06;100.00
50384;BME280;36301;48.310;12.786;2023-10-19T00:05:50;94861.06;;;7.03;100.00
50384;BME280;36301;48.310;12.786;2023-10-19T00:08:17;94863.34;;;7.08;100.00
50384;BME280;36301;48.310;12.786;2023-10-19T00:10:49;94861.50;;;7.12;100.00
50384;BME280;36301;48.310;12.786;2023-10-19T00:13:29;94865.69;;;7.24;100.00
50384;BME280;36301;48.310;12.786;2023-10-19T00:15:56;94862.31;;;7.20;100.00
50384;BME280;36301;48.310;12.786;2023-10-19T00:18:24;94867.97;;;7.25;100.00
50384;BME280;36301;48.310;12.786;2023-10-19T00:20:52;94870.97;;;7.27;100.00
50384;BME280;36301;48.310;12.786;2023-10-19T00:23:22;94855.16;;;7.20;100.00
50384;BME280;36301;48.310;12.786;2023-10-19T00:25:57;94836.69;;;7.13;100.00
50384;BME280;36301;48.310;12.786;2023-10-19T00:28:23;94842.69;;;7.14;100.00
50384;BME280;36301;48.310;12.786;2023-10-19T00:30:53;94837.41;;;6.99;100.00
50384;BME280;36301;48.310;12.786;2023-10-19T00:33:25;94837.41;;;6.99;100.00
50384;BME280;36301;48.310;12.786;2023-10-19T00:35:55;94832.13;;;6.96;100.00
50384;BME280;36301;48.310;12.786;2023-10-19T00:38:27;94841.84;;;6.92;100.00
50384;BME280;36301;48.310;12.786;2023-10-19T00:40:54;94834.75;;;6.96;100.00
50384;BME280;36301;48.310;12.786;2023-10-19T00:43:36;94829.81;;;6.94;100.00
50384;BME280;36301;48.310;12.786;2023-10-19T00:46:04;94830.97;;;6.93;100.00
50384;BME280;36301;48.310;12.786;2023-10-19T00:51:20;94814.75;;;6.81;100.00
50384;BME280;36301;48.310;12.786;2023-10-19T00:53:54;94825.66;;;6.83;100.00
50384;BME280;36301;48.310;12.786;2023-10-19T00:56:22;94821.50;;;6.78;100.00
50384;BME280;36301;48.310;12.786;2023-10-19T00:58:50;94819.56;;;6.68;100.00
50384;BME280;36301;48.310;12.786;2023-10-19T01:01:23;94824.78;;;6.61;100.00
50384;BME280;36301;48.310;12.786;2023-10-19T01:03:55;94822.88;;;6.58;100.00
50384;BME280;36301;48.310;12.786;2023-10-19T01:06:25;94814.97;;;6.50;100.00
50384;BME280;36301;48.310;12.786;2023-10-19T01:08:52;94802.19;;;6.53;100.00
50384;BME280;36301;48.310;12.786;2023-10-19T01:11:20;94802.63;;;6.62;100.00
50384;BME280;36301;48.310;12.786;2023-10-19T01:13:47;94805.22;;;6.58;100.00
50384;BME280;36301;48.310;12.786;2023-10-19T01:16:15;94803.34;;;6.59;100.00
50384;BME280;36301;48.310;12.786;2023-10-19T01:18:49;94796.22;;;6.56;100.00
50384;BME280;36301;48.310;12.786;2023-10-19T01:21:22;94797.69;;;6.53;100.00
50384;BME280;36301;48.310;12.786;2023-10-19T01:23:52;94786.41;;;6.53;100.00
50384;BME280;36301;48.310;12.786;2023-10-19T01:26:19;94771.72;;;6.41;100.00
50384;BME280;36301;48.310;12.786;2023-10-19T01:28:52;94768.34;;;6.40;100.00
50384;BME280;36301;48.310;12.786;2023-10-19T01:31:27;94772.84;;;6.43;100.00
50384;BME280;36301;48.310;12.786;2023-10-19T01:33:59;94766.09;;;6.42;100.00
50384;BME280;36301;48.310;12.786;2023-10-19T01:36:34;94761.56;;;6.39;100.00
50384;BME280;36301;48.310;12.786;2023-10-19T01:39:09;94762.66;;;6.38;100.00
50384;BME280;36301;48.310;12.786;2023-10-19T01:41:37;94773.53;;;6.30;100.00
50384;BME280;36301;48.310;12.786;2023-10-19T01:44:04;94789.28;;;6.26;100.00
50384;BME280;36301;48.310;12.786;2023-10-19T01:46:33;94784.31;;;6.14;100.00
50384;BME280;36301;48.310;12.786;2023-10-19T01:49:02;94803.84;;;6.16;100.00
50384;BME280;36301;48.310;12.786;2023-10-19T01:51:32;94803.06;;;6.12;100.00
50384;BME280;36301;48.310;12.786;2023-10-19T01:53:59;94801.19;;;6.09;100.00
50384;BME280;36301;48.310;12.786;2023-10-19T01:56:27;94805.56;;;5.94;100.00
50384;BME280;36301;48.310;12.786;2023-10-19T01:58:54;94805.91;;;5.93;100.00
50384;BME280;36301;48.310;12.786;2023-10-19T02:01:21;94794.66;;;5.92;100.00
50384;BME280;36301;48.310;12.786;2023-10-19T02:04:00;94793.09;;;5.88;100.00
50384;BME280;36301;48.310;12.786;2023-10-19T02:06:29;94786.31;;;5.83;100.00
50384;BME280;36301;48.310;12.786;2023-10-19T02:09:11;94780.25;;;5.76;100.00
50384;BME280;36301;48.310;12.786;2023-10-19T02:11:49;94766.72;;;5.73;100.00
50384;BME280;36301;48.310;12.786;2023-10-19T02:14:17;94760.34;;;5.75;100.00
50384;BME280;36301;48.310;12.786;2023-10-19T02:16:51;94738.84;;;5.62;100.00
50384;BME280;36301;48.310;12.786;2023-10-19T02:19:21;94743.06;;;5.70;100.00
50384;BME280;36301;48.310;12.786;2023-10-19T02:21:50;94753.94;;;5.72;100.00
50384;BME280;36301;48.310;12.786;2023-10-19T02:24:19;94740.72;;;5.61;100.00
50384;BME280;36301;48.310;12.786;2023-10-19T02:26:49;94735.84;;;5.60;100.00
50384;BME280;36301;48.310;12.786;2023-10-19T02:29:18;94713.69;;;5.54;100.00
50384;BME280;36301;48.310;12.786;2023-10-19T02:31:45;94727.59;;;5.61;100.00
50384;BME280;36301;48.310;12.786;2023-10-19T02:34:14;94698.94;;;5.42;100.00
50384;BME280;36301;48.310;12.786;2023-10-19T02:36:45;94721.22;;;5.59;100.00
50384;BME280;36301;48.310;12.786;2023-10-19T02:39:13;94723.47;;;5.60;100.00
50384;BME280;36301;48.310;12.786;2023-10-19T02:41:43;94717.88;;;5.65;100.00
50384;BME280;36301;48.310;12.786;2023-10-19T02:44:11;94696.81;;;5.55;100.00
50384;BME280;36301;48.310;12.786;2023-10-19T02:46:45;94720.19;;;5.70;100.00
50384;BME280;36301;48.310;12.786;2023-10-19T02:49:13;94714.22;;;5.73;100.00
50384;BME280;36301;48.310;12.786;2023-10-19T02:51:42;94714.53;;;5.68;100.00
50384;BME280;36301;48.310;12.786;2023-10-19T02:54:17;94720.56;;;5.72;100.00
50384;BME280;36301;48.310;12.786;2023-10-19T02:56:56;94714.56;;;5.72;100.00
50384;BME280;36301;48.310;12.786;2023-10-19T02:59:26;94714.59;;;5.76;100.00
50384;BME280;36301;48.310;12.786;2023-10-19T03:01:56;94726.94;;;5.68;100.00
50384;BME280;36301;48.310;12.786;2023-10-19T03:04:35;94716.81;;;5.70;100.00
50384;BME280;36301;48.310;12.786;2023-10-19T03:07:03;94718.69;;;5.69;100.00
50384;BME280;36301;48.310;12.786;2023-10-19T03:09:30;94711.59;;;5.73;100.00
50384;BME280;36301;48.310;12.786;2023-10-19T03:11:58;94690.84;;;5.61;100.00
50384;BME280;36301;48.310;12.786;2023-10-19T03:14:45;94701.47;;;5.76;100.00
50384;BME280;36301;48.310;12.786;2023-10-19T03:17:15;94704.47;;;5.78;100.00
50384;BME280;36301;48.310;12.786;2023-10-19T03:19:42;94689.84;;;5.77;100.00
50384;BME280;36301;48.310;12.786;2023-10-19T03:22:09;94676.69;;;5.77;100.00
50384;BME280;36301;48.310;12.786;2023-10-19T03:24:36;94691.75;;;5.80;100.00
50384;BME280;36301;48.310;12.786;2023-10-19T03:27:09;94690.56;;;5.73;100.00
50384;BME280;36301;48.310;12.786;2023-10-19T03:29:46;94693.28;;;5.88;100.00
50384;BME280;36301;48.310;12.786;2023-10-19T03:32:15;94689.16;;;5.87;100.00
50384;BME280;36301;48.310;12.786;2023-10-19T03:34:45;94691.06;;;5.90;100.00
50384;BME280;36301;48.310;12.786;2023-10-19T03:37:16;94691.13;;;5.93;100.00
50384;BME280;36301;48.310;12.786;2023-10-19T03:39:46;94690.75;;;5.95;100.00
50384;BME280;36301;48.310;12.786;2023-10-19T03:42:13;94692.63;;;5.98;100.00
50384;BME280;36301;48.310;12.786;2023-10-19T03:44:40;94698.28;;;6.00;100.00
50384;BME280;36301;48.310;12.786;2023-10-19T03:47:17;94686.94;;;5.89;100.00
50384;BME280;36301;48.310;12.786;2023-10-19T03:49:47;94685.75;;;5.83;100.00
50384;BME280;36301;48.310;12.786;2023-10-19T03:52:15;94708.00;;;5.96;100.00
50384;BME280;36301;48.310;12.786;2023-10-19T03:54:41;94716.25;;;5.98;100.00
50384;BME280;36301;48.310;12.786;2023-10-19T03:57:11;94701.25;;;5.95;100.00
50384;BME280;36301;48.310;12.786;2023-10-19T03:59:50;94710.66;;;6.00;100.00
50384;BME280;36301;48.310;12.786;2023-10-19T04:02:19;94715.91;;;6.00;100.00
50384;BME280;36301;48.310;12.786;2023-10-19T04:05:01;94711.78;;;5.98;100.00
50384;BME280;36301;48.310;12.786;2023-10-19T04:07:30;94700.50;;;5.94;100.00
50384;BME280;36301;48.310;12.786;2023-10-19T04:09:59;94709.56;;;6.04;100.00
50384;BME280;36301;48.310;12.786;2023-10-19T04:12:38;94702.03;;;5.99;100.00
50384;BME280;36301;48.310;12.786;2023-10-19T04:15:08;94692.28;;;6.00;100.00
50384;BME280;36301;48.310;12.786;2023-10-19T04:17:45;94697.19;;;6.05;100.00
50384;BME280;36301;48.310;12.786;2023-10-19T04:20:17;94689.69;;;6.10;100.00
50384;BME280;36301;48.310;12.786;2023-10-19T04:25:15;94682.59;;;6.14;100.00
50384;BME280;36301;48.310;12.786;2023-10-19T04:27:43;94672.78;;;6.08;100.00
50384;BME280;36301;48.310;12.786;2023-10-19T04:30:10;94663.78;;;6.05;100.00
50384;BME280;36301;48.310;12.786;2023-10-19T04:32:48;94656.66;;;6.09;100.00
50384;BME280;36301;48.310;12.786;2023-10-19T04:35:15;94655.97;;;6.19;100.00
50384;BME280;36301;48.310;12.786;2023-10-19T04:37:53;94659.72;;;6.22;100.00
50384;BME280;36301;48.310;12.786;2023-10-19T04:40:20;94666.47;;;6.23;100.00
50384;BME280;36301;48.310;12.786;2023-10-19T04:42:48;94663.47;;;6.21;100.00
50384;BME280;36301;48.310;12.786;2023-10-19T04:45:15;94651.06;;;6.18;100.00
50384;BME280;36301;48.310;12.786;2023-10-19T04:47:42;94654.03;;;6.13;100.00
50384;BME280;36301;48.310;12.786;2023-10-19T04:50:09;94648.81;;;6.16;100.00
50384;BME280;36301;48.310;12.786;2023-10-19T04:52:39;94657.84;;;6.22;100.00
50384;BME280;36301;48.310;12.786;2023-10-19T04:55:06;94651.13;;;6.29;100.00
50384;BME280;36301;48.310;12.786;2023-10-19T04:57:32;94646.63;;;6.29;100.00
50384;BME280;36301;48.310;12.786;2023-10-19T04:59:59;94646.63;;;6.33;100.00
50384;BME280;36301;48.310;12.786;2023-10-19T05:02:26;94659.06;;;6.39;100.00
50384;BME280;36301;48.310;12.786;2023-10-19T05:04:53;94653.41;;;6.37;100.00
50384;BME280;36301;48.310;12.786;2023-10-19T05:07:20;94658.31;;;6.42;100.00
50384;BME280;36301;48.310;12.786;2023-10-19T05:09:47;94645.16;;;6.39;100.00
50384;BME280;36301;48.310;12.786;2023-10-19T05:12:14;94642.91;;;6.41;100.00
50384;BME280;36301;48.310;12.786;2023-10-19T05:14:42;94638.03;;;6.43;100.00
50384;BME280;36301;48.310;12.786;2023-10-19T05:17:09;94641.78;;;6.42;100.00
50384;BME280;36301;48.310;12.786;2023-10-19T05:19:38;94641.78;;;6.42;100.00
50384;BME280;36301;48.310;12.786;2023-10-19T05:22:06;94639.56;;;6.44;100.00
50384;BME280;36301;48.310;12.786;2023-10-19T05:24:34;94630.50;;;6.41;100.00
50384;BME280;36301;48.310;12.786;2023-10-19T05:27:01;94635.03;;;6.48;100.00
50384;BME280;36301;48.310;12.786;2023-10-19T05:29:28;94626.38;;;6.40;100.00
50384;BME280;36301;48.310;12.786;2023-10-19T05:31:54;94626.75;;;6.42;100.00
50384;BME280;36301;48.310;12.786;2023-10-19T05:34:21;94632.78;;;6.46;100.00
50384;BME280;36301;48.310;12.786;2023-10-19T05:36:48;94622.25;;;6.43;100.00
50384;BME280;36301;48.310;12.786;2023-10-19T05:39:18;94633.94;;;6.49;100.00
50384;BME280;36301;48.310;12.786;2023-10-19T05:41:45;94632.81;;;6.50;100.00
50384;BME280;36301;48.310;12.786;2023-10-19T05:44:12;94635.03;;;6.44;100.00
50384;BME280;36301;48.310;12.786;2023-10-19T05:46:38;94640.69;;;6.54;100.00
50384;BME280;36301;48.310;12.786;2023-10-19T05:49:07;94644.47;;;6.56;100.00
50384;BME280;36301;48.310;12.786;2023-10-19T05:51:34;94646.72;;;6.54;100.00
50384;BME280;36301;48.310;12.786;2023-10-19T05:54:01;94644.47;;;6.63;100.00
50384;BME280;36301;48.310;12.786;2023-10-19T05:56:30;94658.78;;;6.69;100.00
50384;BME280;36301;48.310;12.786;2023-10-19T05:58:57;94663.25;;;6.69;100.00
50384;BME280;36301;48.310;12.786;2023-10-19T06:01:24;94668.94;;;6.74;100.00
50384;BME280;36301;48.310;12.786;2023-10-19T06:03:51;94671.19;;;6.83;100.00
50384;BME280;36301;48.310;12.786;2023-10-19T06:06:19;94659.94;;;6.86;100.00
50384;BME280;36301;48.310;12.786;2023-10-19T06:08:46;94658.81;;;6.87;100.00
50384;BME280;36301;48.310;12.786;2023-10-19T06:11:13;94655.09;;;6.95;100.00
50384;BME280;36301;48.310;12.786;2023-10-19T06:13:39;94664.47;;;6.96;100.00
50384;BME280;36301;48.310;12.786;2023-10-19T06:16:06;94664.88;;;7.06;100.00
50384;BME280;36301;48.310;12.786;2023-10-19T06:18:33;94640.03;;;6.96;100.00
50384;BME280;36301;48.310;12.786;2023-10-19T06:20:59;94654.69;;;7.04;100.00
50384;BME280;36301;48.310;12.786;2023-10-19T06:23:26;94652.81;;;7.08;100.00
50384;BME280;36301;48.310;12.786;2023-10-19T06:25:52;94647.16;;;6.99;100.00
50384;BME280;36301;48.310;12.786;2023-10-19T06:28:19;94661.47;;;7.09;100.00
50384;BME280;36301;48.310;12.786;2023-10-19T06:30:46;94663.75;;;7.21;100.00
50384;BME280;36301;48.310;12.786;2023-10-19T06:33:14;94660.75;;;7.26;100.00
50384;BME280;36301;48.310;12.786;2023-10-19T06:35:41;94649.09;;;7.31;100.00
50384;BME280;36301;48.310;12.786;2023-10-19T06:38:08;94629.16;;;7.19;100.00
50384;BME280;36301;48.310;12.786;2023-10-19T06:40:36;94650.59;;;7.42;100.00
50384;BME280;36301;48.310;12.786;2023-10-19T06:43:03;94644.97;;;7.37;100.00
50384;BME280;36301;48.310;12.786;2023-10-19T06:45:31;94649.09;;;7.48;100.00
50384;BME280;36301;48.310;12.786;2023-10-19T06:47:58;94653.63;;;7.51;100.00
50384;BME280;36301;48.310;12.786;2023-10-19T06:50:26;94646.81;;;7.54;100.00
50384;BME280;36301;48.310;12.786;2023-10-19T06:52:53;94659.63;;;7.66;100.00
50384;BME280;36301;48.310;12.786;2023-10-19T06:55:21;94666.34;;;7.85;100.00
50384;BME280;36301;48.310;12.786;2023-10-19T06:57:53;94668.22;;;7.95;100.00
50384;BME280;36301;48.310;12.786;2023-10-19T07:00:22;94671.22;;;8.04;100.00
50384;BME280;36301;48.310;12.786;2023-10-19T07:02:50;94671.56;;;8.10;100.00
50384;BME280;36301;48.310;12.786;2023-10-19T07:05:22;94670.09;;;8.09;100.00
50384;BME280;36301;48.310;12.786;2023-10-19T07:07:51;94646.00;;;8.07;100.00
50384;BME280;36301;48.310;12.786;2023-10-19T07:10:18;94648.22;;;8.23;100.00
50384;BME280;36301;48.310;12.786;2023-10-19T07:12:48;94657.97;;;8.40;100.00
50384;BME280;36301;48.310;12.786;2023-10-19T07:15:15;94662.09;;;8.45;100.00
50384;BME280;36301;48.310;12.786;2023-10-19T07:17:42;94662.09;;;8.45;100.00
50384;BME280;36301;48.310;12.786;2023-10-19T07:20:10;94660.53;;;8.58;100.00
50384;BME280;36301;48.310;12.786;2023-10-19T07:23:00;94655.94;;;8.73;100.00
50384;BME280;36301;48.310;12.786;2023-10-19T07:25:30;94664.97;;;8.75;100.00
50384;BME280;36301;48.310;12.786;2023-10-19T07:27:57;94663.53;;;8.60;100.00
50384;BME280;36301;48.310;12.786;2023-10-19T07:30:26;94663.53;;;8.64;100.00
50384;BME280;36301;48.310;12.786;2023-10-19T07:32:53;94662.44;;;8.50;100.00
50384;BME280;36301;48.310;12.786;2023-10-19T07:35:26;94666.22;;;8.46;100.00
50384;BME280;36301;48.310;12.786;2023-10-19T07:37:54;94658.34;;;8.39;100.00
50384;BME280;36301;48.310;12.786;2023-10-19T07:40:23;94658.31;;;8.46;100.00
50384;BME280;36301;48.310;12.786;2023-10-19T07:42:50;94648.09;;;8.62;100.00
50384;BME280;36301;48.310;12.786;2023-10-19T07:45:19;94652.53;;;8.76;100.00
50384;BME280;36301;48.310;12.786;2023-10-19T07:47:46;94661.97;;;8.70;100.00
50384;BME280;36301;48.310;12.786;2023-10-19T07:50:13;94661.63;;;8.64;100.00
50384;BME280;36301;48.310;12.786;2023-10-19T07:52:48;94654.56;;;8.47;100.00
50384;BME280;36301;48.310;12.786;2023-10-19T07:55:16;94657.16;;;8.54;100.00
50384;BME280;36301;48.310;12.786;2023-10-19T07:57:44;94649.25;;;8.57;100.00
50384;BME280;36301;48.310;12.786;2023-10-19T08:00:12;94642.75;;;8.69;100.00
50384;BME280;36301;48.310;12.786;2023-10-19T08:02:41;94645.75;;;8.75;100.00
50384;BME280;36301;48.310;12.786;2023-10-19T08:05:08;94655.09;;;8.87;100.00
50384;BME280;36301;48.310;12.786;2023-10-19T08:07:39;94654.19;;;9.11;100.00
50384;BME280;36301;48.310;12.786;2023-10-19T08:10:07;94657.84;;;9.31;100.00
50384;BME280;36301;48.310;12.786;2023-10-19T08:12:37;94645.22;;;9.53;100.00
50384;BME280;36301;48.310;12.786;2023-10-19T08:15:04;94650.19;;;9.89;100.00
50384;BME280;36301;48.310;12.786;2023-10-19T08:17:33;94639.03;;;10.08;100.00
50384;BME280;36301;48.310;12.786;2023-10-19T08:20:00;94633.00;;;10.46;100.00
50384;BME280;36301;48.310;12.786;2023-10-19T08:22:29;94654.91;;;10.77;100.00
50384;BME280;36301;48.310;12.786;2023-10-19T08:24:57;94656.13;;;10.69;100.00
50384;BME280;36301;48.310;12.786;2023-10-19T08:27:23;94647.00;;;10.73;100.00
50384;BME280;36301;48.310;12.786;2023-10-19T08:29:50;94653.16;;;10.67;100.00
50384;BME280;36301;48.310;12.786;2023-10-19T08:32:16;94652.75;;;10.68;100.00
50384;BME280;36301;48.310;12.786;2023-10-19T08:34:43;94654.03;;;10.56;100.00
50384;BME280;36301;48.310;12.786;2023-10-19T08:37:10;94653.03;;;10.74;100.00
50384;BME280;36301;48.310;12.786;2023-10-19T08:39:37;94650.81;;;10.72;100.00
50384;BME280;36301;48.310;12.786;2023-10-19T08:42:04;94646.50;;;10.55;100.00
50384;BME280;36301;48.310;12.786;2023-10-19T08:44:31;94651.72;;;10.58;100.00
50384;BME280;36301;48.310;12.786;2023-10-19T08:46:59;94643.34;;;10.63;100.00
50384;BME280;36301;48.310;12.786;2023-10-19T08:49:26;94650.59;;;10.59;100.00
50384;BME280;36301;48.310;12.786;2023-10-19T08:51:58;94650.25;;;10.54;100.00
50384;BME280;36301;48.310;12.786;2023-10-19T08:54:25;94636.81;;;10.41;100.00
50384;BME280;36301;48.310;12.786;2023-10-19T08:56:52;94650.84;;;10.69;100.00
50384;BME280;36301;48.310;12.786;2023-10-19T08:59:18;94642.69;;;10.86;100.00
50384;BME280;36301;48.310;12.786;2023-10-19T09:01:45;94640.59;;;11.01;100.00
50384;BME280;36301;48.310;12.786;2023-10-19T09:04:12;94643.22;;;11.01;100.00
50384;BME280;36301;48.310;12.786;2023-10-19T09:06:42;94643.09;;;11.12;100.00
50384;BME280;36301;48.310;12.786;2023-10-19T09:09:12;94637.00;;;11.38;99.44
50384;BME280;36301;48.310;12.786;2023-10-19T09:11:52;94637.13;;;11.78;96.37
50384;BME280;36301;48.310;12.786;2023-10-19T09:14:31;94630.72;;;12.39;94.35
50384;BME280;36301;48.310;12.786;2023-10-19T09:17:00;94625.19;;;12.69;91.56
50384;BME280;36301;48.310;12.786;2023-10-19T09:22:04;94629.91;;;12.98;87.82
50384;BME280;36301;48.310;12.786;2023-10-19T09:24:35;94610.28;;;12.56;89.96
50384;BME280;36301;48.310;12.786;2023-10-19T09:27:05;94623.34;;;12.66;90.20
50384;BME280;36301;48.310;12.786;2023-10-19T09:29:32;94625.16;;;13.06;90.42
50384;BME280;36301;48.310;12.786;2023-10-19T09:31:58;94628.66;;;13.03;88.89
50384;BME280;36301;48.310;12.786;2023-10-19T09:34:30;94624.38;;;13.25;88.99
50384;BME280;36301;48.310;12.786;2023-10-19T09:37:00;94618.41;;;13.37;87.31
50384;BME280;36301;48.310;12.786;2023-10-19T09:39:28;94613.91;;;13.18;87.74
50384;BME280;36301;48.310;12.786;2023-10-19T09:42:08;94612.38;;;13.17;88.78
50384;BME280;36301;48.310;12.786;2023-10-19T09:44:44;94604.69;;;13.22;88.63
50384;BME280;36301;48.310;12.786;2023-10-19T09:47:17;94616.00;;;13.27;88.33
50384;BME280;36301;48.310;12.786;2023-10-19T09:49:46;94617.47;;;13.28;87.70
50384;BME280;36301;48.310;12.786;2023-10-19T09:52:17;94605.91;;;13.67;86.98
50384;BME280;36301;48.310;12.786;2023-10-19T09:54:57;94596.63;;;14.04;85.84
50384;BME280;36301;48.310;12.786;2023-10-19T09:57:32;94585.78;;;14.11;84.43
50384;BME280;36301;48.310;12.786;2023-10-19T10:00:03;94589.94;;;14.12;84.03
50384;BME280;36301;48.310;12.786;2023-10-19T10:02:39;94586.78;;;14.30;85.33
50384;BME280;36301;48.310;12.786;2023-10-19T10:10:46;94566.50;;;13.78;86.33
50384;BME280;36301;48.310;12.786;2023-10-19T10:15:58;94560.59;;;13.41;86.96
50384;BME280;36301;48.310;12.786;2023-10-19T10:18:30;94575.88;;;13.54;88.45
50384;BME280;36301;48.310;12.786;2023-10-19T10:23:40;94566.47;;;13.16;87.92
50384;BME280;36301;48.310;12.786;2023-10-19T10:26:08;94570.22;;;13.35;87.19
50384;BME280;36301;48.310;12.786;2023-10-19T10:28:35;94569.44;;;13.67;86.52
50384;BME280;36301;48.310;12.786;2023-10-19T10:36:16;94567.00;;;13.44;88.78
50384;BME280;36301;48.310;12.786;2023-10-19T10:38:50;94551.16;;;13.24;90.22
50384;BME280;36301;48.310;12.786;2023-10-19T10:41:24;94557.50;;;13.43;89.61
50384;BME280;36301;48.310;12.786;2023-10-19T10:43:55;94539.16;;;13.32;90.97
50384;BME280;36301;48.310;12.786;2023-10-19T10:46:26;94525.13;;;13.32;90.89
50384;BME280;36301;48.310;12.786;2023-10-19T10:48:55;94534.09;;;13.38;91.59
50384;BME280;36301;48.310;12.786;2023-10-19T10:51:24;94539.16;;;13.32;92.63
50384;BME280;36301;48.310;12.786;2023-10-19T10:53:52;94535.88;;;13.28;94.15
50384;BME280;36301;48.310;12.786;2023-10-19T10:56:21;94527.63;;;13.06;95.40
50384;BME280;36301;48.310;12.786;2023-10-19T10:58:47;94511.75;;;13.35;93.36
50384;BME280;36301;48.310;12.786;2023-10-19T11:01:14;94496.66;;;13.61;93.49
50384;BME280;36301;48.310;12.786;2023-10-19T11:03:42;94494.75;;;13.62;93.45
50384;BME280;36301;48.310;12.786;2023-10-19T11:06:10;94496.19;;;13.79;93.78
50384;BME280;36301;48.310;12.786;2023-10-19T11:08:38;94502.88;;;13.84;93.94
50384;BME280;36301;48.310;12.786;2023-10-19T11:11:08;94505.97;;;13.82;92.52
50384;BME280;36301;48.310;12.786;2023-10-19T11:13:38;94513.59;;;13.67;92.71
50384;BME280;36301;48.310;12.786;2023-10-19T11:16:06;94517.38;;;13.54;94.07
50384;BME280;36301;48.310;12.786;2023-10-19T11:18:35;94510.53;;;13.69;94.21
50384;BME280;36301;48.310;12.786;2023-10-19T11:21:11;94509.66;;;14.01;92.66
50384;BME280;36301;48.310;12.786;2023-10-19T11:23:46;94517.31;;;14.12;92.71
50384;BME280;36301;48.310;12.786;2023-10-19T11:26:18;94510.59;;;14.07;90.75
50384;BME280;36301;48.310;12.786;2023-10-19T11:28:45;94510.94;;;14.09;92.11
50384;BME280;36301;48.310;12.786;2023-10-19T11:31:21;94491.03;;;14.39;91.41
50384;BME280;36301;48.310;12.786;2023-10-19T11:33:50;94485.31;;;14.92;87.58
50384;BME280;36301;48.310;12.786;2023-10-19T11:36:18;94477.91;;;15.09;85.72
50384;BME280;36301;48.310;12.786;2023-10-19T11:38:46;94494.84;;;15.15;84.46
50384;BME280;36301;48.310;12.786;2023-10-19T11:41:14;94490.78;;;15.23;85.04
50384;BME280;36301;48.310;12.786;2023-10-19T11:43:45;94494.50;;;15.25;85.06
50384;BME280;36301;48.310;12.786;2023-10-19T11:46:12;94487.72;;;15.12;85.82
50384;BME280;36301;48.310;12.786;2023-10-19T11:48:41;94486.50;;;14.91;84.43
50384;BME280;36301;48.310;12.786;2023-10-19T11:51:11;94494.59;;;14.87;84.78
50384;BME280;36301;48.310;12.786;2023-10-19T11:53:38;94485.66;;;14.81;84.83
50384;BME280;36301;48.310;12.786;2023-10-19T11:56:08;94490.78;;;15.10;84.98
50384;BME280;36301;48.310;12.786;2023-10-19T11:58:36;94486.31;;;15.20;84.06
50384;BME280;36301;48.310;12.786;2023-10-19T12:01:10;94471.63;;;15.02;84.37
50384;BME280;36301;48.310;12.786;2023-10-19T12:03:40;94465.88;;;15.04;85.29
50384;BME280;36301;48.310;12.786;2023-10-19T12:06:08;94469.97;;;14.96;85.53
50384;BME280;36301;48.310;12.786;2023-10-19T12:08:35;94475.13;;;15.12;85.66
50384;BME280;36301;48.310;12.786;2023-10-19T12:11:03;94456.97;;;15.20;85.39
50384;BME280;36301;48.310;12.786;2023-10-19T12:13:31;94464.13;;;15.45;83.48
50384;BME280;36301;48.310;12.786;2023-10-19T12:15:58;94461.72;;;15.38;85.27
50384;BME280;36301;48.310;12.786;2023-10-19T12:18:25;94470.91;;;15.58;84.86
50384;BME280;36301;48.310;12.786;2023-10-19T12:20:55;94462.09;;;15.27;84.67
50384;BME280;36301;48.310;12.786;2023-10-19T12:23:26;94451.53;;;15.45;84.98
50384;BME280;36301;48.310;12.786;2023-10-19T12:25:53;94442.50;;;15.21;85.47
50384;BME280;36301;48.310;12.786;2023-10-19T12:28:23;94438.94;;;15.46;84.24
50384;BME280;36301;48.310;12.786;2023-10-19T12:30:51;94433.25;;;15.35;84.20
50384;BME280;36301;48.310;12.786;2023-10-19T12:33:18;94430.56;;;15.13;84.62
50384;BME280;36301;48.310;12.786;2023-10-19T12:35:46;94433.66;;;15.11;85.09
50384;BME280;36301;48.310;12.786;2023-10-19T12:38:18;94436.00;;;15.09;82.59
50384;BME280;36301;48.310;12.786;2023-10-19T12:40:47;94416.94;;;15.11;82.19
50384;BME280;36301;48.310;12.786;2023-10-19T12:43:15;94431.00;;;15.11;81.57
50384;BME280;36301;48.310;12.786;2023-10-19T12:45:42;94421.91;;;15.21;81.58
50384;BME280;36301;48.310;12.786;2023-10-19T12:48:10;94420.16;;;15.27;81.44
50384;BME280;36301;48.310;12.786;2023-10-19T12:50:38;94423.66;;;15.59;79.17
50384;BME280;36301;48.310;12.786;2023-10-19T12:53:05;94422.72;;;15.53;79.70
50384;BME280;36301;48.310;12.786;2023-10-19T12:55:33;94421.53;;;15.54;80.01
50384;BME280;36301;48.310;12.786;2023-10-19T12:58:01;94418.56;;;15.74;79.13
50384;BME280;36301;48.310;12.786;2023-10-19T13:00:34;94413.97;;;15.74;81.20
50384;BME280;36301;48.310;12.786;2023-10-19T13:03:08;94401.72;;;15.86;82.05
50384;BME280;36301;48.310;12.786;2023-10-19T13:05:37;94413.88;;;15.78;83.71
50384;BME280;36301;48.310;12.786;2023-10-19T13:08:13;94413.34;;;15.70;83.65
50384;BME280;36301;48.310;12.786;2023-10-19T13:10:44;94408.69;;;15.83;85.93
50384;BME280;36301;48.310;12.786;2023-10-19T13:13:12;94401.25;;;15.78;83.56
50384;BME280;36301;48.310;12.786;2023-10-19T13:15:41;94404.16;;;15.93;83.44
50384;BME280;36301;48.310;12.786;2023-10-19T13:18:09;94398.19;;;15.89;83.77
50384;BME280;36301;48.310;12.786;2023-10-19T13:20:37;94390.84;;;15.71;82.87
50384;BME280;36301;48.310;12.786;2023-10-19T13:23:08;94400.59;;;15.96;86.50
50384;BME280;36301;48.310;12.786;2023-10-19T13:25:49;94396.19;;;16.02;84.11